Time;durP1;ratioP1;P1;durP2;ratioP2;P2;SDS_P1;SDS_P2;PMS_P1;PMS_P2;Temp;Humidity;BMP_temperature;BMP_pressure;BME280_temperature;BME280_humidity;BME280_pressure;Samples;Min_cycle;Max_cycle;Signal;HPM_P1;HPM_P2
2022/09/15 00:00:25;;;;;;;;;;;12.30;99.90;;;;;;5091619;28;19928;-67
2022/09/15 00:02:52;;;;;;;;;;;12.20;99.90;;;;;;5092276;28;19975;-66
2022/09/15 00:05:18;;;;;;;;;;;12.10;99.90;;;;;;5092791;28;19924;-66
2022/09/15 00:07:45;;;;;;;;;;;12.10;99.90;;;;;;5080707;28;19923;-66
2022/09/15 00:10:13;;;;;;;;;;;12.10;99.90;;;;;;5095585;28;19924;-66
2022/09/15 00:12:40;;;;;;;;;;;12.10;99.90;;;;;;5086027;28;19931;-66
2022/09/15 00:15:07;;;;;;;;;;;12.10;99.90;;;;;;5092702;28;20164;-67
2022/09/15 00:17:34;;;;;;;;;;;12.00;99.90;;;;;;5087526;28;20401;-67
2022/09/15 00:20:01;;;;;;;;;;;12.00;99.90;;;;;;5092940;28;20200;-67
2022/09/15 00:22:28;;;;;;;;;;;12.00;99.90;;;;;;5094179;28;20302;-66
2022/09/15 00:24:54;;;;;;;;;;;12.00;99.90;;;;;;5077190;28;19924;-66
2022/09/15 00:27:22;;;;;;;;;;;12.00;99.90;;;;;;5088739;28;20382;-66
2022/09/15 00:29:49;;;;;;;;;;;12.00;99.90;;;;;;5093595;28;19924;-66
2022/09/15 00:32:15;;;;;;;;;;;12.00;99.90;;;;;;5086430;28;19932;-66
2022/09/15 00:34:42;;;;;;;;;;;12.00;99.90;;;;;;5090733;28;19928;-66
2022/09/15 00:37:09;;;;;;;;;;;12.00;99.90;;;;;;5089513;28;19932;-66
2022/09/15 00:39:35;;;;;;;;;;;11.90;99.90;;;;;;5091221;28;20323;-67
2022/09/15 00:42:03;;;;;;;;;;;11.90;99.90;;;;;;5087825;28;19935;-66
2022/09/15 00:44:48;;;;;;;;;;;11.90;99.90;;;;;;5090141;28;19946;-66
2022/09/15 00:47:15;;;;;;;;;;;11.90;99.90;;;;;;5089474;28;20337;-68
2022/09/15 00:49:42;;;;;;;;;;;11.90;99.90;;;;;;5085782;28;19924;-67
2022/09/15 00:52:11;;;;;;;;;;;11.80;99.90;;;;;;5079411;28;19924;-67
2022/09/15 00:54:40;;;;;;;;;;;11.80;99.90;;;;;;5080133;28;19935;-67
2022/09/15 00:57:09;;;;;;;;;;;11.90;99.90;;;;;;5089612;28;20015;-67
2022/09/15 00:59:37;;;;;;;;;;;11.80;99.90;;;;;;5077479;28;20012;-67
2022/09/15 01:02:08;;;;;;;;;;;11.80;99.90;;;;;;5087451;28;20181;-67
2022/09/15 01:04:35;;;;;;;;;;;11.80;99.90;;;;;;5087069;28;20451;-67
2022/09/15 01:07:03;;;;;;;;;;;11.80;99.90;;;;;;5092836;28;19975;-67
2022/09/15 01:09:33;;;;;;;;;;;11.70;99.90;;;;;;5094775;28;20289;-67
2022/09/15 01:12:00;;;;;;;;;;;11.70;99.90;;;;;;5083072;28;19924;-67
2022/09/15 01:14:27;;;;;;;;;;;11.80;99.90;;;;;;5090529;28;20002;-67
2022/09/15 01:16:56;;;;;;;;;;;11.80;99.90;;;;;;5087756;28;20305;-67
2022/09/15 01:19:50;;;;;;;;;;;11.80;99.90;;;;;;5094486;28;20386;-67
2022/09/15 01:22:23;;;;;;;;;;;11.80;99.90;;;;;;5088259;28;20309;-67
2022/09/15 01:24:58;;;;;;;;;;;11.90;99.90;;;;;;5094314;28;21265;-67
2022/09/15 01:27:35;;;;;;;;;;;11.90;99.90;;;;;;5086042;28;20282;-67
2022/09/15 01:30:10;;;;;;;;;;;12.00;99.90;;;;;;5091051;28;20006;-67
2022/09/15 01:33:04;;;;;;;;;;;12.10;99.90;;;;;;5089366;28;19934;-67
2022/09/15 01:35:34;;;;;;;;;;;12.10;99.90;;;;;;5086545;28;19937;-67
2022/09/15 01:38:06;;;;;;;;;;;12.10;99.90;;;;;;5085850;28;20023;-67
2022/09/15 01:40:35;;;;;;;;;;;12.10;99.90;;;;;;5089475;28;20329;-67
2022/09/15 01:43:03;;;;;;;;;;;12.20;99.90;;;;;;5092649;28;19928;-68
2022/09/15 01:45:32;;;;;;;;;;;12.10;99.90;;;;;;5096707;28;19924;-67
2022/09/15 01:48:01;;;;;;;;;;;12.20;99.90;;;;;;5087585;28;19984;-66
2022/09/15 01:50:30;;;;;;;;;;;12.30;99.90;;;;;;5096849;28;19924;-67
2022/09/15 01:53:00;;;;;;;;;;;12.30;99.90;;;;;;5085038;28;19924;-66
2022/09/15 01:55:29;;;;;;;;;;;12.40;99.90;;;;;;5093439;28;19943;-67
2022/09/15 01:57:57;;;;;;;;;;;12.40;99.90;;;;;;5090829;28;19971;-67
2022/09/15 02:00:23;;;;;;;;;;;12.50;99.90;;;;;;5094193;28;19931;-67
2022/09/15 02:02:55;;;;;;;;;;;12.50;99.90;;;;;;5070872;28;19924;-67
2022/09/15 02:05:24;;;;;;;;;;;12.60;99.90;;;;;;5086957;28;19928;-67
2022/09/15 02:07:53;;;;;;;;;;;12.60;99.90;;;;;;5084788;28;20217;-67
2022/09/15 02:10:26;;;;;;;;;;;12.70;99.90;;;;;;5086530;28;19978;-67
2022/09/15 02:12:54;;;;;;;;;;;12.70;99.90;;;;;;5085302;28;20405;-67
2022/09/15 02:15:24;;;;;;;;;;;12.70;99.90;;;;;;5090393;28;19931;-67
2022/09/15 02:17:53;;;;;;;;;;;12.70;99.90;;;;;;5084878;28;19928;-67
2022/09/15 02:20:22;;;;;;;;;;;12.70;99.90;;;;;;5092687;28;19975;-67
2022/09/15 02:22:52;;;;;;;;;;;12.80;99.90;;;;;;5092890;28;19924;-67
2022/09/15 02:25:21;;;;;;;;;;;12.80;99.90;;;;;;5093737;28;20439;-67
2022/09/15 02:27:51;;;;;;;;;;;12.80;99.90;;;;;;5080252;28;19924;-67
2022/09/15 02:30:19;;;;;;;;;;;12.70;99.90;;;;;;5088523;28;20398;-67
2022/09/15 02:32:48;;;;;;;;;;;12.80;99.90;;;;;;5093716;28;19932;-68
2022/09/15 02:35:17;;;;;;;;;;;12.70;99.90;;;;;;5096515;28;19930;-67
2022/09/15 02:37:44;;;;;;;;;;;12.80;99.90;;;;;;5090845;28;19934;-67
2022/09/15 02:40:11;;;;;;;;;;;12.80;99.90;;;;;;5093327;28;20386;-68
2022/09/15 02:42:38;;;;;;;;;;;12.80;99.90;;;;;;5094150;28;19924;-67
2022/09/15 02:45:05;;;;;;;;;;;12.90;99.90;;;;;;5095044;28;20374;-67
2022/09/15 02:47:31;;;;;;;;;;;12.90;99.90;;;;;;5091604;28;19930;-67
2022/09/15 02:49:58;;;;;;;;;;;12.90;99.90;;;;;;5095599;28;19924;-67
2022/09/15 02:52:26;;;;;;;;;;;12.90;99.90;;;;;;5084914;28;19932;-67
2022/09/15 02:54:53;;;;;;;;;;;13.00;99.90;;;;;;5094951;28;20028;-67
2022/09/15 02:57:20;;;;;;;;;;;13.00;99.90;;;;;;5089615;28;19924;-67
2022/09/15 03:02:31;;;;;;;;;;;13.00;99.90;;;;;;5089622;28;19954;-67
2022/09/15 03:04:57;;;;;;;;;;;12.90;99.90;;;;;;5093560;28;20284;-67
2022/09/15 03:07:24;;;;;;;;;;;13.00;99.90;;;;;;5091013;28;19932;-67
2022/09/15 03:09:52;;;;;;;;;;;13.00;99.90;;;;;;5098256;28;19927;-67
2022/09/15 03:12:19;;;;;;;;;;;13.00;99.90;;;;;;5083876;28;19949;-66
2022/09/15 03:14:46;;;;;;;;;;;13.00;99.90;;;;;;5097438;28;20337;-67
2022/09/15 03:17:13;;;;;;;;;;;13.00;99.90;;;;;;5093378;28;19935;-67
2022/09/15 03:19:40;;;;;;;;;;;13.00;99.90;;;;;;5092128;28;20278;-67
2022/09/15 03:22:08;;;;;;;;;;;13.00;99.90;;;;;;5088232;28;20299;-67
2022/09/15 03:24:35;;;;;;;;;;;13.00;99.90;;;;;;5082725;28;20598;-66
2022/09/15 03:27:03;;;;;;;;;;;13.00;99.90;;;;;;5089058;28;19924;-67
2022/09/15 03:29:30;;;;;;;;;;;13.00;99.90;;;;;;5096234;28;19930;-67
2022/09/15 03:31:56;;;;;;;;;;;13.00;99.90;;;;;;5083959;28;19935;-67
2022/09/15 03:34:23;;;;;;;;;;;13.00;99.90;;;;;;5092115;28;20379;-66
2022/09/15 03:36:50;;;;;;;;;;;13.10;99.90;;;;;;5092233;28;19925;-66
2022/09/15 03:39:16;;;;;;;;;;;13.10;99.90;;;;;;5094106;28;19924;-66
2022/09/15 03:41:43;;;;;;;;;;;13.10;99.90;;;;;;5093183;28;20462;-66
2022/09/15 03:44:11;;;;;;;;;;;13.10;99.90;;;;;;5094131;28;19924;-66
2022/09/15 03:46:37;;;;;;;;;;;13.10;99.90;;;;;;5089745;28;19924;-66
2022/09/15 03:49:04;;;;;;;;;;;13.10;99.90;;;;;;5079441;28;20023;-66
2022/09/15 03:51:31;;;;;;;;;;;13.10;99.90;;;;;;5083031;28;20002;-66
2022/09/15 03:53:58;;;;;;;;;;;13.10;99.90;;;;;;5094070;28;20439;-66
2022/09/15 03:56:25;;;;;;;;;;;13.10;99.90;;;;;;5090529;28;19935;-66
2022/09/15 03:58:53;;;;;;;;;;;13.10;99.90;;;;;;5087204;28;19924;-67
2022/09/15 04:01:21;;;;;;;;;;;13.10;99.90;;;;;;5089523;28;19930;-67
2022/09/15 04:03:48;;;;;;;;;;;13.00;99.90;;;;;;5077785;28;19924;-66
2022/09/15 04:06:15;;;;;;;;;;;13.10;99.90;;;;;;5088538;28;19939;-66
2022/09/15 04:08:41;;;;;;;;;;;13.10;99.90;;;;;;5091733;28;20328;-67
2022/09/15 04:11:10;;;;;;;;;;;13.10;99.90;;;;;;5083808;28;20466;-66
2022/09/15 04:13:37;;;;;;;;;;;13.10;99.90;;;;;;5083147;28;20397;-66
2022/09/15 04:16:04;;;;;;;;;;;13.00;99.90;;;;;;5085829;28;19932;-66
2022/09/15 04:18:33;;;;;;;;;;;13.00;99.90;;;;;;5083440;28;19924;-66
2022/09/15 04:21:00;;;;;;;;;;;13.00;99.90;;;;;;5089043;28;19928;-66
2022/09/15 04:23:26;;;;;;;;;;;12.90;99.90;;;;;;5093983;28;19932;-66
2022/09/15 04:25:56;;;;;;;;;;;12.90;99.90;;;;;;5086380;28;20318;-66
2022/09/15 04:28:23;;;;;;;;;;;12.80;99.90;;;;;;5086551;28;19924;-66
2022/09/15 04:30:50;;;;;;;;;;;12.80;99.90;;;;;;5088006;28;20016;-66
2022/09/15 04:33:16;;;;;;;;;;;12.80;99.90;;;;;;5090739;28;19951;-66
2022/09/15 04:35:44;;;;;;;;;;;12.80;99.90;;;;;;5079087;28;20010;-66
2022/09/15 04:38:11;;;;;;;;;;;12.70;99.90;;;;;;5081180;28;19924;-66
2022/09/15 04:40:38;;;;;;;;;;;12.60;99.90;;;;;;5089338;28;19927;-66
2022/09/15 04:43:05;;;;;;;;;;;12.60;99.90;;;;;;5089229;28;20492;-66
2022/09/15 04:45:32;;;;;;;;;;;12.60;99.90;;;;;;5086966;28;19924;-67
2022/09/15 04:47:59;;;;;;;;;;;12.60;99.90;;;;;;5089336;28;20006;-66
2022/09/15 04:50:25;;;;;;;;;;;12.50;99.90;;;;;;5090675;28;20026;-66
2022/09/15 04:52:53;;;;;;;;;;;12.60;99.90;;;;;;5085465;28;19932;-66
2022/09/15 04:55:20;;;;;;;;;;;12.50;99.90;;;;;;5080069;28;19924;-66
2022/09/15 04:57:46;;;;;;;;;;;12.50;99.90;;;;;;5084901;28;20387;-66
2022/09/15 05:00:14;;;;;;;;;;;12.50;99.90;;;;;;5077815;28;19924;-66
2022/09/15 05:02:40;;;;;;;;;;;12.50;99.90;;;;;;5074831;28;19951;-67
2022/09/15 05:05:07;;;;;;;;;;;12.70;99.90;;;;;;5071360;28;19999;-67
2022/09/15 05:07:34;;;;;;;;;;;12.80;99.90;;;;;;5077342;28;20404;-66
2022/09/15 05:10:03;;;;;;;;;;;12.70;99.90;;;;;;5082341;28;20070;-66
2022/09/15 05:12:30;;;;;;;;;;;12.70;99.90;;;;;;5075071;28;20367;-66
2022/09/15 05:14:56;;;;;;;;;;;12.70;99.90;;;;;;5069923;28;19931;-66
2022/09/15 05:17:23;;;;;;;;;;;12.70;99.90;;;;;;5074157;28;19938;-67
2022/09/15 05:19:50;;;;;;;;;;;12.80;99.90;;;;;;5074691;28;19935;-67
2022/09/15 05:22:16;;;;;;;;;;;12.90;99.90;;;;;;5068280;28;20007;-66
2022/09/15 05:24:43;;;;;;;;;;;12.80;99.90;;;;;;5070537;28;19932;-67
2022/09/15 05:27:11;;;;;;;;;;;12.80;99.90;;;;;;5078187;28;19942;-66
2022/09/15 05:29:38;;;;;;;;;;;12.80;99.90;;;;;;5074990;28;20297;-66
2022/09/15 05:32:04;;;;;;;;;;;12.80;99.90;;;;;;5080134;28;19929;-66
2022/09/15 05:34:31;;;;;;;;;;;12.80;99.90;;;;;;5081459;28;19934;-66
2022/09/15 05:36:58;;;;;;;;;;;12.80;99.90;;;;;;5079423;28;19928;-66
2022/09/15 05:39:24;;;;;;;;;;;12.90;99.90;;;;;;5082543;28;19978;-66
2022/09/15 05:41:51;;;;;;;;;;;12.90;99.90;;;;;;5078285;28;19924;-66
2022/09/15 05:44:20;;;;;;;;;;;13.00;99.90;;;;;;5072679;28;20016;-66
2022/09/15 05:46:46;;;;;;;;;;;13.10;99.90;;;;;;5092180;28;19923;-66
2022/09/15 05:49:13;;;;;;;;;;;13.00;99.90;;;;;;5072697;28;19932;-65
2022/09/15 05:51:40;;;;;;;;;;;13.10;99.90;;;;;;5076969;28;19932;-66
2022/09/15 05:54:07;;;;;;;;;;;13.10;99.90;;;;;;5077911;28;19968;-65
2022/09/15 05:56:34;;;;;;;;;;;13.10;99.90;;;;;;5078689;28;20488;-66
2022/09/15 05:59:00;;;;;;;;;;;13.20;99.90;;;;;;5075382;28;19979;-66
2022/09/15 06:01:29;;;;;;;;;;;13.10;99.90;;;;;;5089008;28;20010;-66
2022/09/15 06:03:57;;;;;;;;;;;13.00;99.90;;;;;;5095291;28;19924;-66
2022/09/15 06:06:24;;;;;;;;;;;12.90;99.90;;;;;;5086382;28;19932;-65
2022/09/15 06:08:54;;;;;;;;;;;12.80;99.90;;;;;;5087025;28;20016;-65
2022/09/15 06:11:21;;;;;;;;;;;12.80;99.90;;;;;;5075571;28;20417;-65
2022/09/15 06:13:48;;;;;;;;;;;12.90;99.90;;;;;;5086535;28;20382;-64
2022/09/15 06:16:18;;;;;;;;;;;13.00;99.90;;;;;;5091582;28;20031;-64
2022/09/15 06:18:46;;;;;;;;;;;13.10;99.90;;;;;;5086349;28;20015;-63
2022/09/15 06:21:14;;;;;;;;;;;13.20;99.90;;;;;;5087350;28;19924;-65
2022/09/15 06:23:41;;;;;;;;;;;13.30;99.90;;;;;;5089573;28;19932;-63
2022/09/15 06:26:10;;;;;;;;;;;13.30;99.90;;;;;;5086603;28;19963;-64
2022/09/15 06:28:36;;;;;;;;;;;13.30;99.90;;;;;;5066995;28;20416;-65
2022/09/15 06:31:04;;;;;;;;;;;13.30;99.90;;;;;;5069841;28;20023;-65
2022/09/15 06:33:30;;;;;;;;;;;13.40;99.90;;;;;;5081803;28;19944;-66
2022/09/15 06:36:02;;;;;;;;;;;13.50;99.90;;;;;;5082691;28;19932;-64
2022/09/15 06:38:29;;;;;;;;;;;13.50;99.90;;;;;;5086614;28;19985;-64
2022/09/15 06:40:56;;;;;;;;;;;13.60;99.90;;;;;;5084674;28;20394;-64
2022/09/15 06:43:22;;;;;;;;;;;13.70;99.90;;;;;;5088429;28;20011;-65
2022/09/15 06:45:49;;;;;;;;;;;13.90;99.90;;;;;;5089398;28;20350;-64
2022/09/15 06:48:16;;;;;;;;;;;14.00;99.90;;;;;;5087130;28;19924;-64
2022/09/15 06:50:43;;;;;;;;;;;14.10;99.90;;;;;;5089454;28;19924;-64
2022/09/15 06:53:21;;;;;;;;;;;14.10;99.90;;;;;;5084929;28;20053;-65
2022/09/15 06:55:48;;;;;;;;;;;14.20;99.90;;;;;;5075716;28;21579;-65
2022/09/15 06:58:15;;;;;;;;;;;14.20;99.90;;;;;;5078221;28;20027;-64
2022/09/15 07:00:42;;;;;;;;;;;14.30;99.90;;;;;;5078432;28;19955;-64
2022/09/15 07:03:08;;;;;;;;;;;14.30;99.90;;;;;;5074182;28;19931;-64
2022/09/15 07:05:35;;;;;;;;;;;14.40;99.90;;;;;;5074820;28;20011;-65
2022/09/15 07:08:02;;;;;;;;;;;14.60;99.90;;;;;;5076151;28;20027;-64
2022/09/15 07:10:31;;;;;;;;;;;14.70;99.90;;;;;;5073436;28;20274;-65
2022/09/15 07:13:00;;;;;;;;;;;14.70;99.90;;;;;;5076749;28;19924;-65
2022/09/15 07:15:26;;;;;;;;;;;14.70;99.90;;;;;;5073371;28;20437;-65
2022/09/15 07:17:53;;;;;;;;;;;14.70;99.90;;;;;;5081742;28;20414;-65
2022/09/15 07:20:20;;;;;;;;;;;14.70;99.90;;;;;;5078760;28;20303;-64
2022/09/15 07:22:47;;;;;;;;;;;14.70;99.90;;;;;;5078439;28;20073;-64
2022/09/15 07:25:13;;;;;;;;;;;14.70;99.90;;;;;;5083064;28;19931;-64
2022/09/15 07:27:41;;;;;;;;;;;14.70;99.90;;;;;;5076105;28;19931;-64
2022/09/15 07:30:09;;;;;;;;;;;14.80;99.90;;;;;;5072231;28;19967;-64
2022/09/15 07:32:35;;;;;;;;;;;14.90;99.90;;;;;;5075692;28;19968;-64
2022/09/15 07:35:02;;;;;;;;;;;15.00;99.90;;;;;;5072147;28;19963;-64
2022/09/15 07:37:29;;;;;;;;;;;15.00;99.90;;;;;;5076157;28;20019;-64
2022/09/15 07:39:55;;;;;;;;;;;15.00;99.90;;;;;;5075387;28;20027;-64
2022/09/15 07:42:22;;;;;;;;;;;15.10;99.90;;;;;;5078816;28;20035;-64
2022/09/15 07:44:50;;;;;;;;;;;15.10;99.90;;;;;;5076295;28;20345;-63
2022/09/15 07:47:17;;;;;;;;;;;15.20;99.90;;;;;;5077731;28;20606;-63
2022/09/15 07:49:44;;;;;;;;;;;15.20;99.90;;;;;;5079884;28;19924;-64
2022/09/15 07:52:11;;;;;;;;;;;15.30;99.90;;;;;;5075641;28;19932;-64
2022/09/15 07:54:38;;;;;;;;;;;15.40;99.90;;;;;;5087746;28;19923;-64
2022/09/15 07:57:05;;;;;;;;;;;15.50;99.90;;;;;;5073308;28;19932;-63
2022/09/15 07:59:31;;;;;;;;;;;15.70;99.90;;;;;;5074173;28;19924;-63
2022/09/15 08:01:59;;;;;;;;;;;15.70;99.90;;;;;;5074748;28;20355;-63
2022/09/15 08:04:26;;;;;;;;;;;15.70;99.90;;;;;;5076636;28;19942;-63
2022/09/15 08:06:53;;;;;;;;;;;15.60;99.90;;;;;;5079848;28;20031;-62
2022/09/15 08:09:23;;;;;;;;;;;15.70;99.90;;;;;;5078960;28;19924;-62
2022/09/15 08:11:49;;;;;;;;;;;15.80;99.90;;;;;;5081058;28;19934;-63
2022/09/15 08:14:16;;;;;;;;;;;15.90;99.90;;;;;;5074319;28;19938;-64
2022/09/15 08:16:43;;;;;;;;;;;16.30;99.90;;;;;;5080270;28;20019;-63
2022/09/15 08:19:12;;;;;;;;;;;17.20;99.90;;;;;;5085694;28;20359;-64
2022/09/15 08:21:39;;;;;;;;;;;17.50;99.90;;;;;;5084709;28;19935;-64
2022/09/15 08:24:05;;;;;;;;;;;17.50;99.90;;;;;;5080446;28;20029;-64
2022/09/15 08:26:32;;;;;;;;;;;17.60;99.90;;;;;;5079407;28;19924;-63
2022/09/15 08:28:59;;;;;;;;;;;17.70;99.90;;;;;;5073347;28;19924;-64
2022/09/15 08:31:26;;;;;;;;;;;17.90;99.90;;;;;;5072881;28;19982;-64
2022/09/15 08:33:53;;;;;;;;;;;17.80;99.90;;;;;;5075424;28;19931;-64
2022/09/15 08:36:22;;;;;;;;;;;18.00;99.90;;;;;;5080591;28;19924;-64
2022/09/15 08:38:48;;;;;;;;;;;18.10;99.90;;;;;;5075263;28;19924;-63
2022/09/15 08:41:18;;;;;;;;;;;18.40;99.90;;;;;;5073067;28;21915;-64
2022/09/15 08:43:46;;;;;;;;;;;18.40;99.90;;;;;;5086038;28;19932;-63
2022/09/15 08:46:15;;;;;;;;;;;18.30;99.90;;;;;;5078847;28;19924;-64
2022/09/15 08:48:45;;;;;;;;;;;18.40;99.90;;;;;;5083650;28;19944;-63
2022/09/15 08:51:14;;;;;;;;;;;18.10;99.90;;;;;;5073845;28;20248;-64
2022/09/15 08:53:44;;;;;;;;;;;18.00;99.90;;;;;;5078967;28;19930;-65
2022/09/15 08:56:14;;;;;;;;;;;17.90;99.90;;;;;;5073328;28;19928;-64
2022/09/15 08:58:41;;;;;;;;;;;17.60;99.90;;;;;;5078119;28;19964;-64
2022/09/15 09:01:16;;;;;;;;;;;17.40;99.90;;;;;;5083645;28;19924;-64
2022/09/15 09:03:49;;;;;;;;;;;17.30;99.90;;;;;;5074968;28;19932;-64
2022/09/15 09:06:22;;;;;;;;;;;17.30;99.90;;;;;;5078420;28;19934;-63
2022/09/15 09:08:55;;;;;;;;;;;17.20;99.90;;;;;;5078394;28;20379;-64
2022/09/15 09:11:25;;;;;;;;;;;17.20;99.90;;;;;;5074009;28;19924;-64
2022/09/15 09:13:57;;;;;;;;;;;17.10;99.90;;;;;;5077597;28;20320;-64
2022/09/15 09:16:28;;;;;;;;;;;17.20;99.90;;;;;;5089791;28;20473;-64
2022/09/15 09:19:13;;;;;;;;;;;17.40;99.90;;;;;;5076780;28;20023;-64
2022/09/15 09:21:41;;;;;;;;;;;17.40;99.90;;;;;;5062061;28;19924;-65
2022/09/15 09:24:13;;;;;;;;;;;18.00;99.90;;;;;;5079327;28;19959;-64
2022/09/15 09:26:40;;;;;;;;;;;19.20;99.90;;;;;;5074330;28;19924;-64
2022/09/15 09:29:11;;;;;;;;;;;20.40;99.90;;;;;;5077561;28;20027;-64
2022/09/15 09:31:39;;;;;;;;;;;20.60;99.90;;;;;;5079958;28;20375;-64
2022/09/15 09:34:14;;;;;;;;;;;20.80;99.90;;;;;;5089151;28;20360;-64
2022/09/15 09:36:41;;;;;;;;;;;20.80;99.90;;;;;;5074869;28;19925;-66
2022/09/15 09:39:12;;;;;;;;;;;20.70;99.90;;;;;;5077960;28;19963;-64
2022/09/15 09:41:39;;;;;;;;;;;20.50;99.90;;;;;;5071925;28;20369;-64
2022/09/15 09:44:07;;;;;;;;;;;20.20;99.90;;;;;;5073646;28;19932;-64
2022/09/15 09:46:34;;;;;;;;;;;20.30;99.90;;;;;;5081210;28;19924;-63
2022/09/15 09:49:02;;;;;;;;;;;20.50;99.90;;;;;;5080042;28;19925;-63
2022/09/15 09:51:30;;;;;;;;;;;20.80;99.90;;;;;;5079668;28;19924;-63
2022/09/15 09:53:56;;;;;;;;;;;21.30;99.90;;;;;;5077327;28;19932;-64
2022/09/15 09:56:25;;;;;;;;;;;21.10;99.90;;;;;;5074968;28;20379;-64
2022/09/15 09:58:52;;;;;;;;;;;20.80;99.90;;;;;;5082600;28;19924;-63
2022/09/15 10:01:20;;;;;;;;;;;20.70;99.90;;;;;;5077947;28;19972;-63
2022/09/15 10:03:47;;;;;;;;;;;20.50;99.90;;;;;;5077444;28;19928;-63
2022/09/15 10:06:15;;;;;;;;;;;20.60;99.90;;;;;;5078807;28;19924;-63
2022/09/15 10:08:53;;;;;;;;;;;21.10;99.90;;;;;;5085354;28;19930;-63
2022/09/15 10:11:20;;;;;;;;;;;21.20;98.90;;;;;;5073916;28;19924;-63
2022/09/15 10:13:52;;;;;;;;;;;21.30;98.70;;;;;;5087341;28;20015;-64
2022/09/15 10:16:19;;;;;;;;;;;21.20;99.90;;;;;;5084954;28;20567;-63
2022/09/15 10:18:48;;;;;;;;;;;20.90;97.70;;;;;;5072633;28;20371;-64
2022/09/15 10:21:15;;;;;;;;;;;20.90;98.30;;;;;;5074244;28;19936;-63
2022/09/15 10:23:42;;;;;;;;;;;20.70;98.40;;;;;;5078391;28;19924;-64
2022/09/15 10:26:19;;;;;;;;;;;20.50;98.20;;;;;;5077225;28;20378;-64
2022/09/15 10:29:06;;;;;;;;;;;20.60;98.30;;;;;;5080882;28;19924;-63
2022/09/15 10:31:34;;;;;;;;;;;20.70;97.90;;;;;;5073062;28;19938;-63
2022/09/15 10:34:21;;;;;;;;;;;20.60;98.90;;;;;;5077178;28;20305;-63
2022/09/15 10:36:48;;;;;;;;;;;20.10;99.60;;;;;;5078655;28;19934;-63
2022/09/15 10:39:19;;;;;;;;;;;19.50;99.20;;;;;;5091319;28;19924;-63
2022/09/15 10:41:50;;;;;;;;;;;19.20;99.90;;;;;;5076679;28;20015;-62
2022/09/15 10:44:26;;;;;;;;;;;19.00;99.90;;;;;;5080515;28;19970;-63
2022/09/15 10:46:58;;;;;;;;;;;18.90;99.90;;;;;;5079784;28;20010;-61
2022/09/15 10:49:33;;;;;;;;;;;18.90;99.90;;;;;;5076572;28;19931;-75
2022/09/15 10:52:04;;;;;;;;;;;19.00;99.90;;;;;;5080408;28;20022;-75
2022/09/15 10:54:39;;;;;;;;;;;19.10;99.90;;;;;;5077161;28;20011;-75
2022/09/15 10:57:10;;;;;;;;;;;19.10;99.90;;;;;;5078054;28;20299;-79
2022/09/15 10:59:44;;;;;;;;;;;19.10;99.90;;;;;;5079921;28;20406;-77
2022/09/15 11:02:37;;;;;;;;;;;18.80;99.90;;;;;;5080119;28;19931;-77
2022/09/15 11:05:17;;;;;;;;;;;18.40;99.90;;;;;;5080302;28;20235;-76
2022/09/15 11:07:49;;;;;;;;;;;18.00;99.90;;;;;;5083074;28;20286;-79
2022/09/15 11:10:22;;;;;;;;;;;17.60;99.90;;;;;;5075227;28;20139;-78
2022/09/15 11:12:56;;;;;;;;;;;17.30;99.90;;;;;;5080391;28;19928;-75
2022/09/15 11:15:40;;;;;;;;;;;17.20;99.90;;;;;;5084189;28;20026;-74
2022/09/15 11:18:18;;;;;;;;;;;17.20;99.90;;;;;;5071675;28;19978;-74
2022/09/15 11:20:55;;;;;;;;;;;17.30;99.90;;;;;;5087004;28;19924;-73
2022/09/15 11:23:27;;;;;;;;;;;17.60;99.90;;;;;;5081124;28;19954;-72
2022/09/15 11:25:59;;;;;;;;;;;18.10;99.90;;;;;;5084117;28;20048;-72
2022/09/15 11:28:28;;;;;;;;;;;17.70;99.90;;;;;;5075398;28;20075;-71
2022/09/15 11:30:59;;;;;;;;;;;17.40;99.90;;;;;;5078331;28;19925;-73
2022/09/15 11:33:31;;;;;;;;;;;17.40;99.90;;;;;;5071253;28;20351;-71
2022/09/15 11:36:01;;;;;;;;;;;17.30;99.90;;;;;;5083338;28;19924;-71
2022/09/15 11:38:33;;;;;;;;;;;17.30;99.90;;;;;;5078053;28;19932;-71
2022/09/15 11:41:09;;;;;;;;;;;16.90;99.90;;;;;;5074321;28;20072;-71
2022/09/15 11:43:37;;;;;;;;;;;16.80;99.90;;;;;;5073964;28;19935;-72
2022/09/15 11:46:09;;;;;;;;;;;17.10;99.90;;;;;;5079489;28;19925;-72
2022/09/15 11:48:40;;;;;;;;;;;17.20;99.90;;;;;;5076838;28;20351;-71
2022/09/15 11:51:07;;;;;;;;;;;17.40;99.90;;;;;;5084087;28;19932;-71
2022/09/15 11:53:38;;;;;;;;;;;17.80;99.90;;;;;;5079094;28;19925;-71
2022/09/15 11:56:13;;;;;;;;;;;18.20;99.90;;;;;;5084539;28;19931;-72
2022/09/15 11:58:45;;;;;;;;;;;18.40;99.90;;;;;;5082933;28;19928;-71
2022/09/15 12:01:14;;;;;;;;;;;18.80;99.90;;;;;;5077546;28;19923;-70
2022/09/15 12:03:45;;;;;;;;;;;18.80;99.90;;;;;;5080534;28;20019;-69
2022/09/15 12:06:14;;;;;;;;;;;18.70;98.80;;;;;;5078650;28;19969;-70
2022/09/15 12:08:44;;;;;;;;;;;18.80;99.30;;;;;;5073506;28;20355;-70
2022/09/15 12:11:14;;;;;;;;;;;18.70;99.90;;;;;;5071838;28;20379;-71
2022/09/15 12:13:41;;;;;;;;;;;19.00;99.50;;;;;;5079784;28;19924;-71
2022/09/15 12:16:08;;;;;;;;;;;19.20;99.10;;;;;;5078193;28;20019;-70
2022/09/15 12:18:37;;;;;;;;;;;19.00;99.50;;;;;;5078142;28;20064;-70
2022/09/15 12:21:08;;;;;;;;;;;19.50;98.90;;;;;;5069798;28;19971;-69
2022/09/15 12:23:37;;;;;;;;;;;19.60;97.60;;;;;;5075062;28;19925;-72
2022/09/15 12:26:07;;;;;;;;;;;19.40;97.10;;;;;;5078637;28;20355;-71
2022/09/15 12:28:38;;;;;;;;;;;19.30;98.60;;;;;;5082099;28;19927;-71
2022/09/15 12:31:12;;;;;;;;;;;19.60;99.20;;;;;;5070246;28;19924;-71
2022/09/15 12:33:45;;;;;;;;;;;19.80;97.80;;;;;;5075755;28;19935;-71
2022/09/15 12:36:29;;;;;;;;;;;19.60;97.70;;;;;;5077526;28;19985;-71
2022/09/15 12:38:58;;;;;;;;;;;20.00;97.90;;;;;;5074408;28;20039;-71
2022/09/15 12:41:24;;;;;;;;;;;20.10;96.50;;;;;;5071851;28;19991;-70
2022/09/15 12:43:52;;;;;;;;;;;19.90;96.30;;;;;;5071578;28;19931;-70
2022/09/15 12:46:19;;;;;;;;;;;19.00;98.60;;;;;;5078763;27;20398;-70
2022/09/15 12:48:46;;;;;;;;;;;18.60;99.60;;;;;;5078297;28;19924;-70
2022/09/15 12:51:20;;;;;;;;;;;19.20;99.90;;;;;;5070914;28;19924;-70
2022/09/15 12:53:49;;;;;;;;;;;19.40;99.70;;;;;;5075587;28;20282;-70
2022/09/15 12:56:23;;;;;;;;;;;19.60;99.20;;;;;;5076489;28;20007;-71
2022/09/15 12:58:51;;;;;;;;;;;19.60;99.00;;;;;;5070504;28;19973;-71
2022/09/15 13:01:32;;;;;;;;;;;19.90;98.70;;;;;;5077127;28;19931;-71
2022/09/15 13:04:12;;;;;;;;;;;20.10;97.90;;;;;;5075162;28;19942;-68
2022/09/15 13:06:39;;;;;;;;;;;20.40;97.50;;;;;;5083631;28;19924;-68
2022/09/15 13:09:24;;;;;;;;;;;20.50;97.00;;;;;;5079789;28;20363;-68
2022/09/15 13:11:54;;;;;;;;;;;20.60;96.30;;;;;;5079767;28;20014;-68
2022/09/15 13:14:24;;;;;;;;;;;21.00;96.40;;;;;;5078684;28;20459;-69
2022/09/15 13:16:53;;;;;;;;;;;21.10;95.70;;;;;;5076299;28;19925;-69
2022/09/15 13:19:22;;;;;;;;;;;20.90;95.10;;;;;;5073893;28;19955;-69
2022/09/15 13:21:55;;;;;;;;;;;20.70;96.40;;;;;;5077293;28;19932;-70
2022/09/15 13:24:27;;;;;;;;;;;20.70;96.80;;;;;;5077194;28;20039;-67
2022/09/15 13:26:56;;;;;;;;;;;20.70;96.10;;;;;;5069932;28;19947;-70
2022/09/15 13:29:23;;;;;;;;;;;20.80;96.10;;;;;;5076787;28;20295;-70
2022/09/15 13:31:53;;;;;;;;;;;20.80;94.70;;;;;;5075861;28;19924;-70
2022/09/15 13:34:43;;;;;;;;;;;20.50;94.50;;;;;;5073536;28;19940;-71
2022/09/15 13:37:19;;;;;;;;;;;20.30;94.50;;;;;;5078552;28;19928;-71
2022/09/15 13:39:58;;;;;;;;;;;20.60;94.40;;;;;;5081072;28;20409;-71
2022/09/15 13:42:35;;;;;;;;;;;20.80;93.80;;;;;;5072944;28;20575;-72
2022/09/15 13:45:16;;;;;;;;;;;21.00;92.90;;;;;;5071998;28;20319;-71
2022/09/15 13:47:49;;;;;;;;;;;20.70;91.70;;;;;;5075052;28;19938;-71
2022/09/15 13:50:18;;;;;;;;;;;20.40;92.00;;;;;;5071687;28;19976;-70
2022/09/15 13:52:52;;;;;;;;;;;20.10;92.30;;;;;;5078886;28;19924;-71
2022/09/15 13:55:25;;;;;;;;;;;20.00;93.80;;;;;;5076609;28;19930;-70
2022/09/15 13:57:54;;;;;;;;;;;20.00;95.60;;;;;;5072514;28;20010;-71
2022/09/15 14:00:23;;;;;;;;;;;19.80;98.40;;;;;;5072923;28;20014;-70
2022/09/15 14:02:51;;;;;;;;;;;19.70;99.70;;;;;;5074654;28;19929;-71
2022/09/15 14:05:20;;;;;;;;;;;19.40;97.10;;;;;;5073122;28;19938;-71
2022/09/15 14:07:47;;;;;;;;;;;;;;;;;;5079775;28;20401;-70
2022/09/15 14:10:18;;;;;;;;;;;18.90;99.90;;;;;;5078127;28;20356;-71
2022/09/15 14:12:45;;;;;;;;;;;19.00;99.90;;;;;;5077250;28;19932;-71
2022/09/15 14:15:17;;;;;;;;;;;19.10;99.90;;;;;;5072728;28;19925;-72
2022/09/15 14:17:44;;;;;;;;;;;18.90;99.90;;;;;;5074394;28;19932;-70
2022/09/15 14:20:20;;;;;;;;;;;19.00;99.90;;;;;;5078650;28;19928;-70
2022/09/15 14:22:48;;;;;;;;;;;18.90;99.90;;;;;;5061259;28;20500;-69
2022/09/15 14:25:18;;;;;;;;;;;19.00;99.90;;;;;;5071234;28;19932;-71
2022/09/15 14:27:45;;;;;;;;;;;18.90;99.90;;;;;;5068870;28;19957;-70
2022/09/15 14:30:18;;;;;;;;;;;18.60;99.90;;;;;;5072152;28;20032;-70
2022/09/15 14:32:48;;;;;;;;;;;18.20;99.90;;;;;;5074047;28;20020;-71